»·PEaware :: N978AP KPOC-KPSP

N978AP :: KPOC-KPSP

FLIGHT INFORMATION

Flight Status: Arrived
Operator: Privately registered:
United States
More flights under this callsign
Pilot: Gerardo G. (23685)
Aircraft: CESSNA 172 SKYHAWK
(C172)
More flights by this aircraft type
Origin: KPOC Brackett
United States
Destination: KPSP Palm Springs Intl
United States
More flights between these airports :: More routes between these airports
Route: +PRADO V16 PDZ V186 NIKKL V64 TRM
File this flight plan on PilotEdge
Remarks:
Altitude:
(Current/Filed)
11,000ft
Speed:
(Current/Filed)
115kts
Departed: 11-May-19 02:49 PM
Arrived: 11-May-19 03:44 PM
Distance/Time
Traveled:
65nm/0:55
Distance/Time
To Go:
Arrived

Flight Plot

Page will automatically refresh every two minutes.


Map Options




Map Legend


Flown Route
Filed Route
Departure Airport
Arrival Airport
Navaid (VOR, NDB)
Fix

Horizontal Profiles

Position Reports

Time Latitude Longitude Heading Altitude Ground
Speed
11-May-19 14:31 34.088479 -117.776881 359 1000ft 0kts
11-May-19 14:32 34.088479 -117.776881 359 1000ft 0kts
11-May-19 14:33 34.088479 -117.776881 359 1000ft 0kts
11-May-19 14:34 34.088479 -117.776881 359 1000ft 0kts
11-May-19 14:35 34.088479 -117.776881 359 1000ft 0kts
11-May-19 14:36 34.088479 -117.776881 359 1000ft 0kts
11-May-19 14:37 34.088479 -117.776881 359 1000ft 0kts
11-May-19 14:38 34.088479 -117.776881 359 1000ft 0kts
11-May-19 14:39 34.088479 -117.776881 359 1000ft 0kts
11-May-19 14:40 34.088479 -117.776881 359 1000ft 0kts
11-May-19 14:41 34.088479 -117.776881 359 1000ft 0kts
11-May-19 14:42 34.088479 -117.776881 359 1000ft 0kts
11-May-19 14:43 34.090274 -117.775588 116 1003ft 20kts
11-May-19 14:43 34.090114 -117.774777 343 1004ft 0kts
11-May-19 14:45 34.090114 -117.774777 343 1004ft 0kts
11-May-19 14:46 34.090349 -117.774675 18 1004ft 7kts
11-May-19 14:47 34.090426 -117.774655 4 1004ft 0kts
11-May-19 14:48 34.090426 -117.774655 4 1004ft 0kts
11-May-19 14:48 34.091273 -117.781108 272 1099ft 68kts
11-May-19 14:50 34.079936 -117.794359 143 2104ft 87kts
11-May-19 14:51 34.058855 -117.785512 187 2953ft 80kts
11-May-19 14:51 34.039474 -117.784735 183 3614ft 81kts
11-May-19 14:53 34.008865 -117.782129 180 4123ft 110kts
11-May-19 14:53 33.980713 -117.780041 162 4014ft 118kts
11-May-19 14:54 33.967709 -117.749289 105 4694ft 99kts
11-May-19 14:55 33.959246 -117.716794 99 5325ft 97kts
11-May-19 14:56 33.952579 -117.684005 93 5899ft 97kts
11-May-19 14:58 33.945886 -117.645862 92 6527ft 95kts
11-May-19 14:58 33.940674 -117.619493 97 6935ft 94kts
11-May-19 14:59 33.931792 -117.585047 105 7000ft 112kts
11-May-19 15:00 33.920025 -117.549417 93 7053ft 109kts
11-May-19 15:01 33.912909 -117.513879 136 7213ft 110kts
11-May-19 15:02 33.885815 -117.498555 145 7679ft 104kts
11-May-19 15:03 33.860715 -117.480017 147 8053ft 102kts
11-May-19 15:04 33.835557 -117.464023 136 8469ft 99kts
11-May-19 15:05 33.814881 -117.440030 121 8756ft 100kts
11-May-19 15:06 33.792848 -117.417996 151 9060ft 107kts
11-May-19 15:07 33.767644 -117.399091 146 9370ft 104kts
11-May-19 15:08 33.738403 -117.386926 152 9676ft 106kts
11-May-19 15:09 33.723503 -117.361456 86 9986ft 89kts
11-May-19 15:10 33.725298 -117.332047 85 10289ft 90kts
11-May-19 15:11 33.714564 -117.302828 103 10462ft 95kts
11-May-19 15:12 33.709417 -117.273236 87 10783ft 86kts
11-May-19 15:13 33.707429 -117.243477 87 11026ft 87kts
11-May-19 15:14 33.703733 -117.211875 86 11118ft 95kts
11-May-19 15:15 33.704565 -117.178933 78 11127ft 100kts
11-May-19 15:16 33.707672 -117.144352 80 11065ft 102kts
11-May-19 15:17 33.706526 -117.108897 88 10797ft 103kts
11-May-19 15:18 33.702227 -117.074734 95 10691ft 98kts
11-May-19 15:19 33.693818 -117.043636 118 10621ft 103kts
11-May-19 15:20 33.688778 -117.013591 88 10789ft 84kts
11-May-19 15:21 33.687362 -116.984141 89 10934ft 88kts
11-May-19 15:22 33.684973 -116.953364 91 11020ft 91kts
11-May-19 15:23 33.682898 -116.921635 93 11063ft 94kts
11-May-19 15:24 33.678848 -116.888922 91 11073ft 96kts
11-May-19 15:25 33.677318 -116.854954 87 11017ft 99kts
11-May-19 15:26 33.677371 -116.819755 89 10908ft 102kts
11-May-19 15:27 33.674935 -116.785238 96 10834ft 100kts
11-May-19 15:28 33.669763 -116.751527 93 10772ft 98kts
11-May-19 15:29 33.666643 -116.718529 88 10730ft 96kts
11-May-19 15:30 33.665931 -116.685579 92 10679ft 95kts
11-May-19 15:31 33.664025 -116.652837 81 10620ft 94kts
11-May-19 15:32 33.672700 -116.622735 43 10545ft 96kts
11-May-19 15:33 33.694605 -116.602028 43 10236ft 98kts
11-May-19 15:34 33.716424 -116.581622 38 9589ft 98kts
11-May-19 15:35 33.737567 -116.560421 41 8774ft 95kts
11-May-19 15:36 33.756944 -116.537500 49 7495ft 95kts
11-May-19 15:37 33.775771 -116.513573 49 6112ft 97kts
11-May-19 15:38 33.793112 -116.488742 50 4557ft 94kts
11-May-19 15:39 33.810029 -116.498234 267 3444ft 83kts
11-May-19 15:40 33.795431 -116.507726 110 2461ft 60kts
11-May-19 15:41 33.807580 -116.496663 18 1275ft 59kts
11-May-19 15:42 33.823842 -116.502474 329 406ft 48kts
11-May-19 15:43 33.828835 -116.508269 260 424ft 0kts
11-May-19 15:44 33.828835 -116.508269 260 424ft 0kts
11-May-19 15:45 33.828835 -116.508269 260 424ft 0kts
11-May-19 15:46 33.828835 -116.508269 260 424ft 0kts

Navigation Log

Ident Type
Flight plan parsing failed, navigation log unavailable